Time;durP1;ratioP1;P1;durP2;ratioP2;P2;SDS_P1;SDS_P2;PMS_P1;PMS_P2;Temp;Humidity;BMP_temperature;BMP_pressure;BME280_temperature;BME280_humidity;BME280_pressure;Samples;Min_cycle;Max_cycle;Signal;HPM_P1;HPM_P2
2021/04/05 00:01:50;;;;;;;12.03;9.43;;;2.70;99.90;;;;;;5049798;23;20483;-75
2021/04/05 00:04:18;;;;;;;14.37;8.80;;;2.70;99.90;;;;;;5057270;28;20446;-76
2021/04/05 00:06:46;;;;;;;19.37;10.57;;;2.60;99.90;;;;;;5059618;28;20902;-81
2021/04/05 00:09:13;;;;;;;13.10;8.37;;;2.60;99.90;;;;;;5061530;28;20462;-76
2021/04/05 00:11:41;;;;;;;15.40;8.90;;;2.60;99.90;;;;;;5061485;28;20430;-76
2021/04/05 00:14:10;;;;;;;14.60;9.10;;;2.50;99.90;;;;;;5071809;28;20510;-81
2021/04/05 00:16:37;;;;;;;12.50;9.13;;;2.50;99.90;;;;;;5061976;28;20475;-77
2021/04/05 00:19:05;;;;;;;14.10;9.50;;;2.50;99.90;;;;;;5036955;28;20425;-78
2021/04/05 00:21:32;;;;;;;13.53;8.23;;;2.40;99.90;;;;;;5018317;28;20443;-79
2021/04/05 00:24:00;;;;;;;17.20;10.37;;;2.40;99.90;;;;;;5033676;28;20430;-77
2021/04/05 00:26:27;;;;;;;13.10;8.70;;;2.30;99.90;;;;;;5036509;28;20481;-74
2021/04/05 00:28:55;;;;;;;11.93;9.20;;;2.40;99.90;;;;;;5035832;28;20431;-76
2021/04/05 00:31:23;;;;;;;12.17;8.60;;;2.30;99.90;;;;;;5047899;28;20871;-77
2021/04/05 00:33:50;;;;;;;14.40;10.60;;;2.30;99.90;;;;;;5058267;28;20458;-77
2021/04/05 00:36:18;;;;;;;11.17;8.53;;;2.20;99.90;;;;;;5060923;28;20470;-77
2021/04/05 00:38:46;;;;;;;11.73;8.80;;;2.20;99.90;;;;;;5059697;28;20438;-76
2021/04/05 00:41:16;;;;;;;12.73;9.50;;;2.10;99.90;;;;;;5056495;28;20441;-76
2021/04/05 00:43:48;;;;;;;14.43;9.40;;;2.00;99.90;;;;;;5054723;28;20446;-76
2021/04/05 00:46:19;;;;;;;11.77;8.90;;;1.90;99.90;;;;;;5054755;28;20884;-77
2021/04/05 00:48:48;;;;;;;11.50;8.43;;;1.80;99.90;;;;;;5055716;28;20486;-78
2021/04/05 00:51:21;;;;;;;11.33;8.77;;;1.70;99.90;;;;;;5055793;28;20470;-76
2021/04/05 00:53:50;;;;;;;9.03;7.27;;;1.70;99.90;;;;;;5055287;28;20425;-76
2021/04/05 00:56:20;;;;;;;8.20;7.40;;;1.70;99.90;;;;;;5058511;28;20449;-76
2021/04/05 00:58:48;;;;;;;11.10;7.60;;;1.70;99.90;;;;;;5056738;28;20957;-76
2021/04/05 01:01:20;;;;;;;9.73;8.07;;;1.60;99.90;;;;;;5052288;28;20485;-76
2021/04/05 01:03:50;;;;;;;11.50;7.73;;;1.60;99.90;;;;;;5039105;28;20486;-76
2021/04/05 01:06:21;;;;;;;13.40;8.63;;;1.60;99.90;;;;;;5056806;28;20762;-76
2021/04/05 01:11:41;;;;;;;14.03;9.90;;;1.50;99.90;;;;;;5041828;28;20446;-76
2021/04/05 01:14:09;;;;;;;11.67;7.97;;;1.60;99.90;;;;;;5041834;28;20812;-76
2021/04/05 01:16:37;;;;;;;10.43;7.50;;;1.60;99.90;;;;;;5052457;28;20469;-76
2021/04/05 01:19:05;;;;;;;14.30;9.40;;;1.60;99.90;;;;;;5060165;28;20430;-76
2021/04/05 01:21:35;;;;;;;13.20;8.60;;;1.50;99.90;;;;;;5060797;28;20453;-76
2021/04/05 01:24:05;;;;;;;9.60;8.60;;;1.40;99.90;;;;;;5061877;28;20445;-76
2021/04/05 01:26:33;;;;;;;13.43;8.00;;;1.50;99.90;;;;;;5064610;28;20434;-78
2021/04/05 01:29:01;;;;;;;10.53;8.13;;;1.30;99.90;;;;;;5065335;28;20885;-75
2021/04/05 01:31:28;;;;;;;15.07;9.50;;;1.20;99.90;;;;;;5061064;28;20884;-76
2021/04/05 01:33:56;;;;;;;13.10;8.73;;;1.20;99.90;;;;;;5065649;28;20434;-79
2021/04/05 01:36:23;;;;;;;13.27;8.17;;;1.10;99.90;;;;;;5065178;28;20438;-76
2021/04/05 01:38:53;;;;;;;12.93;8.73;;;1.10;99.90;;;;;;5063152;28;20439;-76
2021/04/05 01:41:24;;;;;;;10.40;7.57;;;1.00;99.90;;;;;;5063301;28;20855;-75
2021/04/05 01:43:52;;;;;;;13.60;7.70;;;1.00;99.90;;;;;;5065137;28;20466;-75
2021/04/05 01:46:20;;;;;;;9.27;8.47;;;1.00;99.90;;;;;;5059019;28;20475;-78
2021/04/05 01:48:48;;;;;;;12.77;8.47;;;1.00;99.90;;;;;;5042830;28;20499;-74
2021/04/05 01:51:19;;;;;;;15.40;9.27;;;0.90;99.90;;;;;;5039026;28;20470;-79
2021/04/05 01:53:48;;;;;;;10.53;7.60;;;0.90;99.90;;;;;;5038551;28;20541;-79
2021/04/05 01:56:18;;;;;;;15.00;7.87;;;1.00;99.90;;;;;;5043018;28;20450;-76
2021/04/05 01:58:49;;;;;;;12.90;8.50;;;0.90;99.90;;;;;;5044371;28;20989;-76
2021/04/05 02:01:20;;;;;;;13.57;8.03;;;0.90;99.90;;;;;;5052107;28;20485;-76
2021/04/05 02:03:48;;;;;;;10.83;8.20;;;0.80;99.90;;;;;;5064310;28;20469;-79
2021/04/05 02:06:17;;;;;;;11.90;8.07;;;0.80;99.90;;;;;;5063394;28;20434;-76
2021/04/05 02:11:40;;;;;;;11.30;9.97;;;0.70;99.90;;;;;;5063149;28;20501;-77
2021/04/05 02:14:09;;;;;;;9.83;7.60;;;0.70;99.90;;;;;;5060014;28;20461;-79
2021/04/05 02:16:37;;;;;;;9.60;7.50;;;0.70;99.90;;;;;;5059395;28;20470;-80
2021/04/05 02:19:05;;;;;;;16.10;9.70;;;0.70;99.90;;;;;;5060082;28;20439;-77
2021/04/05 02:21:33;;;;;;;15.47;7.37;;;0.70;99.90;;;;;;5060124;28;20521;-75
2021/04/05 02:24:03;;;;;;;9.50;7.83;;;0.70;99.90;;;;;;5043467;28;20806;-77
2021/04/05 02:26:33;;;;;;;12.77;8.40;;;0.70;99.90;;;;;;5067259;28;20733;-77
2021/04/05 02:29:01;;;;;;;12.47;8.90;;;0.60;99.90;;;;;;5073184;28;20415;-76
2021/04/05 02:31:31;;;;;;;12.30;8.60;;;0.60;99.90;;;;;;5051720;28;20467;-79
2021/04/05 02:34:06;;;;;;;9.03;7.70;;;0.60;99.90;;;;;;5047543;28;20477;-76
2021/04/05 02:36:34;;;;;;;9.33;7.73;;;0.60;99.90;;;;;;5053398;28;20439;-76
2021/04/05 02:39:07;;;;;;;12.70;8.60;;;0.60;99.90;;;;;;5054161;28;20481;-76
2021/04/05 02:41:37;;;;;;;12.13;9.50;;;0.60;99.90;;;;;;5052267;28;20454;-78
2021/04/05 02:44:05;;;;;;;11.70;9.53;;;0.70;99.90;;;;;;5054008;28;20458;-77
2021/04/05 02:46:35;;;;;;;11.40;8.90;;;0.80;99.90;;;;;;5064270;28;20510;-76
2021/04/05 02:49:07;;;;;;;12.53;9.33;;;0.90;99.90;;;;;;5072044;28;20430;-76
2021/04/05 02:51:35;;;;;;;16.60;9.60;;;1.00;99.90;;;;;;5071893;28;20565;-78
2021/04/05 02:54:05;;;;;;;11.00;8.70;;;1.00;99.90;;;;;;5064554;28;20449;-78
2021/04/05 02:56:36;;;;;;;14.13;10.63;;;1.10;99.90;;;;;;5064368;28;20443;-75
2021/04/05 02:59:04;;;;;;;14.80;9.57;;;1.20;99.90;;;;;;5064006;28;20452;-76
2021/04/05 03:01:34;;;;;;;11.90;7.93;;;1.30;99.90;;;;;;5066541;28;20475;-77
2021/04/05 03:04:02;;;;;;;13.10;8.83;;;1.30;99.90;;;;;;5063721;28;20470;-77
2021/04/05 03:06:30;;;;;;;14.77;9.90;;;1.40;99.90;;;;;;5043085;28;20444;-77
2021/04/05 03:09:00;;;;;;;14.10;9.70;;;1.40;99.90;;;;;;5058063;28;20443;-76
2021/04/05 03:11:31;;;;;;;15.27;9.93;;;1.40;99.90;;;;;;5041920;28;20459;-76
2021/04/05 03:13:58;;;;;;;17.30;9.60;;;1.50;99.90;;;;;;5040434;28;20466;-76
2021/04/05 03:16:27;;;;;;;14.33;8.70;;;1.50;99.90;;;;;;5069591;28;20618;-78
2021/04/05 03:18:58;;;;;;;11.00;9.10;;;1.50;99.90;;;;;;5042464;28;20458;-76
2021/04/05 03:21:26;;;;;;;11.20;8.60;;;1.50;99.90;;;;;;5042768;28;20439;-76
2021/04/05 03:24:00;;;;;;;16.80;9.40;;;1.70;99.90;;;;;;5040069;28;20431;-74
2021/04/05 03:26:27;;;;;;;10.37;8.00;;;1.80;99.90;;;;;;5037359;28;20442;-76
2021/04/05 03:28:55;;;;;;;11.30;8.37;;;2.00;99.90;;;;;;5044020;28;20526;-76
2021/04/05 03:31:26;;;;;;;12.20;8.40;;;2.10;99.90;;;;;;5053303;28;20575;-76
2021/04/05 03:33:59;;;;;;;15.70;9.50;;;2.10;99.90;;;;;;5061617;28;20434;-78
2021/04/05 03:36:30;;;;;;;12.53;8.30;;;2.00;99.90;;;;;;5059298;28;20444;-76
2021/04/05 03:38:58;;;;;;;10.63;7.70;;;1.90;99.90;;;;;;5061802;28;20427;-76
2021/04/05 03:41:34;;;;;;;16.30;9.00;;;1.90;99.90;;;;;;5060749;28;20468;-76
2021/04/05 03:44:05;;;;;;;14.23;8.33;;;1.90;99.90;;;;;;5062198;28;20438;-76
2021/04/05 03:46:37;;;;;;;13.23;7.93;;;1.90;99.90;;;;;;5060099;28;20466;-76
2021/04/05 03:49:19;;;;;;;10.57;7.70;;;2.10;99.90;;;;;;5060836;28;20930;-78
2021/04/05 03:51:51;;;;;;;12.83;7.87;;;2.20;99.90;;;;;;5060920;28;20557;-79
2021/04/05 03:54:52;;;;;;;10.00;7.30;;;2.30;99.90;;;;;;5057783;28;20432;-77
2021/04/05 03:57:23;;;;;;;11.03;7.80;;;2.30;99.90;;;;;;5054488;28;20426;-76
2021/04/05 03:59:53;;;;;;;13.33;7.50;;;2.50;99.90;;;;;;5059747;28;20441;-79
2021/04/05 04:02:23;;;;;;;11.97;10.03;;;2.60;99.90;;;;;;5058567;28;20510;-77
2021/04/05 04:04:58;;;;;;;16.20;7.70;;;2.50;99.90;;;;;;5059862;28;20462;-78
2021/04/05 04:07:32;;;;;;;13.67;8.33;;;2.50;99.90;;;;;;5061368;28;20430;-76
2021/04/05 04:10:03;;;;;;;11.40;7.87;;;2.40;99.90;;;;;;5060957;28;20854;-76
2021/04/05 04:12:33;;;;;;;11.73;7.87;;;2.50;99.90;;;;;;5058118;28;20430;-76
2021/04/05 04:15:02;;;;;;;9.33;7.33;;;2.60;99.90;;;;;;5059605;28;20488;-76
2021/04/05 04:17:33;;;;;;;10.90;7.40;;;2.70;99.90;;;;;;5059749;28;20991;-76
2021/04/05 04:20:04;;;;;;;9.47;6.40;;;2.80;99.90;;;;;;5060706;28;20430;-76
2021/04/05 04:22:33;;;;;;;9.83;7.87;;;2.80;99.90;;;;;;5060693;28;20639;-76
2021/04/05 04:25:01;;;;;;;12.80;7.90;;;2.90;99.90;;;;;;5057949;28;20790;-76
2021/04/05 04:27:28;;;;;;;18.17;7.70;;;2.80;99.90;;;;;;5059978;28;20449;-78
2021/04/05 04:29:56;;;;;;;12.20;7.67;;;2.70;99.90;;;;;;5061720;28;20461;-78
2021/04/05 04:32:24;;;;;;;14.20;7.57;;;2.70;99.90;;;;;;5054514;28;20471;-75
2021/04/05 04:34:52;;;;;;;10.90;6.87;;;2.80;99.90;;;;;;5053765;28;20447;-75
2021/04/05 04:37:46;;;;;;;10.10;7.00;;;2.70;99.90;;;;;;5037621;28;20949;-75
2021/04/05 04:40:15;;;;;;;9.67;6.40;;;2.70;99.90;;;;;;5052521;28;20463;-74
2021/04/05 04:42:42;;;;;;;9.33;7.07;;;2.60;99.90;;;;;;5036821;28;20431;-76
2021/04/05 04:45:12;;;;;;;11.27;8.17;;;2.60;99.90;;;;;;5037743;28;20522;-76
2021/04/05 04:47:40;;;;;;;10.70;7.10;;;2.60;99.90;;;;;;5058787;28;20526;-76
2021/04/05 04:50:09;;;;;;;12.80;7.10;;;2.60;99.90;;;;;;5057393;28;20992;-79
2021/04/05 04:52:40;;;;;;;11.00;7.10;;;2.80;99.90;;;;;;5057088;28;20440;-75
2021/04/05 04:55:11;;;;;;;9.67;6.70;;;2.80;99.90;;;;;;5056059;28;20442;-75
2021/04/05 04:57:38;;;;;;;13.67;7.90;;;2.90;99.90;;;;;;5056361;28;20449;-77
2021/04/05 05:00:07;;;;;;;11.97;6.80;;;3.00;99.90;;;;;;5058763;28;20446;-77
2021/04/05 05:02:38;;;;;;;9.20;6.87;;;3.00;99.90;;;;;;5060799;28;20474;-79
2021/04/05 05:05:07;;;;;;;14.57;7.03;;;3.10;99.90;;;;;;5060357;28;20423;-76
2021/04/05 05:07:35;;;;;;;17.13;9.50;;;3.20;99.90;;;;;;5064091;28;20465;-77
2021/04/05 05:10:06;;;;;;;8.20;5.70;;;3.10;99.90;;;;;;5059137;28;21008;-76
2021/04/05 05:12:37;;;;;;;8.97;7.30;;;3.20;99.90;;;;;;5070308;28;20435;-75
2021/04/05 05:15:07;;;;;;;9.03;6.20;;;3.40;99.90;;;;;;5065258;28;21011;-76
2021/04/05 05:17:38;;;;;;;9.70;6.50;;;3.50;99.90;;;;;;5064077;28;20481;-76
2021/04/05 05:20:07;;;;;;;11.70;6.67;;;3.30;99.90;;;;;;5058785;28;20955;-79
2021/04/05 05:22:37;;;;;;;8.80;6.33;;;3.50;99.90;;;;;;5060048;28;20445;-79
2021/04/05 05:25:07;;;;;;;9.33;6.47;;;3.50;99.90;;;;;;5061866;28;20434;-79
2021/04/05 05:27:38;;;;;;;9.43;6.50;;;3.50;99.90;;;;;;5058854;28;20526;-79
2021/04/05 05:30:09;;;;;;;11.00;7.50;;;3.50;99.90;;;;;;5058884;28;20488;-76
2021/04/05 05:32:38;;;;;;;10.50;7.07;;;3.60;99.90;;;;;;5062311;28;20473;-79
2021/04/05 05:35:08;;;;;;;7.00;6.30;;;3.70;99.90;;;;;;5061644;28;20434;-76
2021/04/05 05:37:36;;;;;;;6.40;5.47;;;3.70;99.90;;;;;;5063336;28;20426;-77
2021/04/05 05:40:08;;;;;;;7.63;6.37;;;4.00;99.90;;;;;;5061848;28;20422;-76
2021/04/05 05:42:54;;;;;;;10.13;6.67;;;4.10;99.90;;;;;;5057981;28;20519;-76
2021/04/05 05:45:25;;;;;;;6.77;5.63;;;4.20;99.90;;;;;;5070068;28;21580;-79
2021/04/05 05:48:00;;;;;;;11.67;6.50;;;4.30;99.90;;;;;;5063021;28;20434;-76
2021/04/05 05:50:38;;;;;;;12.43;6.60;;;4.30;99.90;;;;;;5058217;28;20548;-75
2021/04/05 05:53:16;;;;;;;7.47;5.60;;;4.60;99.90;;;;;;5060568;28;20442;-76
2021/04/05 05:56:22;;;;;;;8.83;6.00;;;4.60;99.90;;;;;;5061743;28;20429;-76
2021/04/05 05:59:00;;;;;;;9.33;6.03;;;4.70;99.90;;;;;;5056882;28;20433;-76
2021/04/05 06:01:43;;;;;;;7.63;6.10;;;4.80;99.90;;;;;;5057927;28;20541;-76
2021/04/05 06:04:24;;;;;;;6.00;5.40;;;5.00;99.90;;;;;;5057326;28;20467;-77
2021/04/05 06:06:58;;;;;;;10.13;7.60;;;5.10;99.90;;;;;;5057328;28;20430;-76
2021/04/05 06:09:34;;;;;;;10.30;7.13;;;5.20;99.90;;;;;;5060043;28;20779;-78
2021/04/05 06:12:08;;;;;;;14.60;6.67;;;5.40;99.90;;;;;;5059447;28;20794;-76
2021/04/05 06:14:54;;;;;;;9.30;5.03;;;5.60;99.90;;;;;;5076722;28;20469;-76
2021/04/05 06:17:30;;;;;;;7.00;5.93;;;5.70;99.90;;;;;;5057993;28;20466;-78
2021/04/05 06:20:06;;;;;;;10.23;7.03;;;5.80;99.90;;;;;;5060423;28;20425;-76
2021/04/05 06:23:14;;;;;;;7.77;5.60;;;6.00;99.90;;;;;;5061053;28;20422;-78
2021/04/05 06:25:58;;;;;;;16.13;5.90;;;6.30;99.90;;;;;;5058901;28;20426;-77
2021/04/05 06:28:34;;;;;;;10.23;6.57;;;6.70;99.90;;;;;;5059596;28;20432;-77
2021/04/05 06:31:15;;;;;;;7.33;6.30;;;7.50;99.90;;;;;;5064182;28;20475;-78
2021/04/05 06:33:50;;;;;;;6.40;5.20;;;7.70;98.90;;;;;;5060912;28;20936;-78
2021/04/05 06:36:30;;;;;;;12.17;5.40;;;8.20;98.30;;;;;;5063722;28;20436;-80
2021/04/05 06:39:04;;;;;;;8.40;6.20;;;8.90;97.10;;;;;;5067115;28;20517;-81
2021/04/05 06:42:01;;;;;;;15.57;6.57;;;8.60;97.30;;;;;;5065942;28;20530;-80
2021/04/05 06:45:04;;;;;;;8.37;5.23;;;8.90;97.10;;;;;;5043058;28;20436;-80
2021/04/05 06:48:23;;;;;;;7.80;6.10;;;8.90;97.20;;;;;;5057832;28;20473;-79
2021/04/05 06:51:04;;;;;;;9.60;5.43;;;9.10;96.90;;;;;;4983791;28;20567;-79
2021/04/05 06:53:58;;;;;;;7.77;5.27;;;8.90;96.50;;;;;;4984871;28;20444;-80
2021/04/05 06:56:33;;;;;;;8.37;5.27;;;9.40;96.60;;;;;;4979037;28;20543;-79
2021/04/05 06:59:23;;;;;;;11.53;5.80;;;9.70;95.80;;;;;;4964709;28;20436;-80
2021/04/05 07:02:05;;;;;;;9.97;7.47;;;9.70;95.50;;;;;;4975278;28;20456;-78
2021/04/05 07:05:04;;;;;;;6.67;5.20;;;9.70;95.10;;;;;;4975302;28;20452;-79
2021/04/05 07:07:46;;;;;;;7.40;5.17;;;9.50;95.90;;;;;;4976464;28;20423;-79
2021/04/05 07:10:21;;;;;;;9.60;5.80;;;9.80;95.40;;;;;;4979956;28;20437;-80
2021/04/05 07:12:59;;;;;;;8.00;5.23;;;10.60;94.00;;;;;;4976585;28;20441;-79
2021/04/05 07:15:58;;;;;;;9.33;6.10;;;10.40;93.20;;;;;;4976669;28;20464;-77
2021/04/05 07:18:39;;;;;;;10.33;5.70;;;11.20;92.20;;;;;;4971510;28;20443;-76
2021/04/05 07:21:39;;;;;;;13.67;6.53;;;10.50;91.60;;;;;;4991701;28;20939;-78
2021/04/05 07:24:21;;;;;;;8.73;5.40;;;11.40;91.80;;;;;;5036969;28;20435;-77
2021/04/05 07:27:00;;;;;;;9.43;5.80;;;12.80;89.90;;;;;;5069520;28;20452;-79
2021/04/05 07:29:38;;;;;;;16.30;6.53;;;12.40;88.50;;;;;;5037207;28;20913;-79
2021/04/05 07:32:14;;;;;;;7.20;4.80;;;11.90;89.60;;;;;;5052265;28;20479;-77
2021/04/05 07:34:54;;;;;;;14.70;6.40;;;12.30;88.60;;;;;;5056095;28;20438;-76
2021/04/05 07:37:31;;;;;;;7.63;4.70;;;12.10;87.80;;;;;;5055583;28;20454;-77
2021/04/05 07:40:39;;;;;;;6.83;5.47;;;11.90;88.50;;;;;;5054596;28;20434;-75
2021/04/05 07:43:15;;;;;;;7.20;4.30;;;11.90;88.80;;;;;;5054254;28;20464;-77
2021/04/05 07:45:53;;;;;;;15.23;6.30;;;12.30;87.60;;;;;;5053498;28;20788;-76
2021/04/05 07:48:24;;;;;;;9.37;5.40;;;11.80;87.30;;;;;;5047199;28;20449;-76
2021/04/05 07:50:56;;;;;;;11.40;6.30;;;11.50;89.20;;;;;;5024209;28;20491;-77
2021/04/05 07:53:35;;;;;;;14.20;5.93;;;11.30;90.10;;;;;;5042693;28;20523;-80
2021/04/05 07:56:13;;;;;;;7.23;5.27;;;11.20;90.00;;;;;;5036237;28;20954;-75
2021/04/05 07:58:52;;;;;;;16.50;7.10;;;11.00;90.30;;;;;;5034906;28;20913;-76
2021/04/05 08:01:27;;;;;;;8.57;5.80;;;10.90;90.50;;;;;;5045740;28;20441;-77
2021/04/05 08:04:07;;;;;;;6.67;4.80;;;11.00;90.50;;;;;;5054156;28;20473;-80
2021/04/05 08:06:45;;;;;;;9.87;4.90;;;10.50;90.70;;;;;;5055252;28;20419;-78
2021/04/05 08:09:16;;;;;;;9.80;4.70;;;10.50;90.80;;;;;;5053597;28;20393;-76
2021/04/05 08:12:30;;;;;;;7.90;5.30;;;10.40;90.60;;;;;;5054967;28;20474;-74
2021/04/05 08:15:10;;;;;;;8.53;5.20;;;10.40;90.40;;;;;;5021287;28;20417;-79
2021/04/05 08:17:50;;;;;;;9.33;4.60;;;10.50;90.40;;;;;;5035996;28;20500;-75
2021/04/05 08:20:25;;;;;;;7.90;4.63;;;10.50;90.00;;;;;;5038472;28;20420;-75
2021/04/05 08:23:00;;;;;;;7.27;4.57;;;10.50;88.90;;;;;;5037561;28;20460;-75
2021/04/05 08:25:42;;;;;;;6.67;5.13;;;10.70;89.20;;;;;;5037447;28;20409;-75
2021/04/05 08:28:21;;;;;;;9.60;4.70;;;10.80;88.20;;;;;;5038852;28;20775;-75
2021/04/05 08:30:55;;;;;;;7.10;6.07;;;10.60;88.80;;;;;;5041607;28;20536;-74
2021/04/05 08:33:34;;;;;;;8.50;4.20;;;10.40;88.30;;;;;;5056015;28;20491;-75
2021/04/05 08:36:14;;;;;;;6.30;4.27;;;10.20;89.00;;;;;;5054051;28;20503;-77
2021/04/05 08:38:52;;;;;;;13.23;4.90;;;10.20;88.60;;;;;;5055002;28;20469;-77
2021/04/05 08:41:30;;;;;;;14.37;5.53;;;9.90;88.10;;;;;;5054901;28;20500;-76
2021/04/05 08:44:09;;;;;;;9.30;5.20;;;9.70;89.10;;;;;;5057895;28;20423;-78
2021/04/05 08:46:38;;;;;;;12.53;4.83;;;9.70;89.80;;;;;;5035230;28;20474;-77
2021/04/05 08:52:08;;;;;;;8.27;5.63;;;9.80;89.90;;;;;;5036573;28;20513;-76
2021/04/05 08:55:02;;;;;;;8.97;6.83;;;9.70;89.50;;;;;;5051320;28;20447;-76
2021/04/05 08:57:34;;;;;;;8.30;5.70;;;9.70;88.50;;;;;;5035133;28;20432;-75
2021/04/05 09:00:08;;;;;;;7.80;5.00;;;9.70;87.90;;;;;;5035006;28;20474;-76
2021/04/05 09:02:37;;;;;;;13.37;7.07;;;9.90;87.90;;;;;;5033258;28;20453;-76
2021/04/05 09:05:09;;;;;;;13.43;7.13;;;10.00;86.80;;;;;;5036787;28;20945;-76
2021/04/05 09:07:54;;;;;;;9.30;5.30;;;10.30;87.70;;;;;;5036464;28;20535;-77
2021/04/05 09:10:25;;;;;;;8.63;5.33;;;10.30;86.50;;;;;;5036940;28;20487;-75
2021/04/05 09:12:57;;;;;;;10.13;5.83;;;10.40;85.60;;;;;;5034454;28;20526;-75
2021/04/05 09:15:57;;;;;;;9.03;5.03;;;10.20;86.00;;;;;;5039337;28;20438;-75
2021/04/05 09:18:54;;;;;;;14.63;5.77;;;10.40;86.30;;;;;;5056017;28;20438;-75
2021/04/05 09:21:38;;;;;;;6.90;5.33;;;10.40;86.10;;;;;;5038428;28;20781;-75
2021/04/05 09:24:32;;;;;;;13.43;6.10;;;10.20;85.90;;;;;;5058395;28;20434;-75
2021/04/05 09:27:42;;;;;;;14.17;6.63;;;10.00;86.10;;;;;;5049580;28;20424;-75
2021/04/05 09:30:32;;;;;;;16.13;7.17;;;10.20;86.60;;;;;;4991003;28;20412;-75
2021/04/05 09:33:31;;;;;;;12.53;8.90;;;10.30;86.00;;;;;;5055186;28;20451;-76
2021/04/05 09:36:10;;;;;;;10.30;7.13;;;10.50;85.10;;;;;;5039143;28;20447;-75
2021/04/05 09:38:53;;;;;;;10.87;6.97;;;10.40;84.90;;;;;;5038272;28;20450;-75
2021/04/05 09:41:45;;;;;;;14.27;6.90;;;10.10;86.10;;;;;;5040371;28;20517;-75
2021/04/05 09:44:44;;;;;;;19.63;6.00;;;10.00;87.20;;;;;;5037430;28;20438;-76
2021/04/05 09:47:25;;;;;;;15.70;8.00;;;9.90;88.00;;;;;;5063133;28;20819;-76
2021/04/05 09:50:10;;;;;;;12.30;8.00;;;10.00;87.10;;;;;;5060891;28;20857;-76
2021/04/05 09:53:01;;;;;;;17.67;7.73;;;10.40;86.40;;;;;;5058292;28;20466;-75
2021/04/05 09:55:32;;;;;;;12.23;6.63;;;10.70;84.90;;;;;;5059146;28;20521;-77
2021/04/05 09:58:05;;;;;;;18.37;8.80;;;10.90;83.10;;;;;;5061647;28;20405;-76
2021/04/05 10:00:34;;;;;;;9.87;7.20;;;10.80;83.60;;;;;;5058244;28;20446;-74
2021/04/05 10:03:05;;;;;;;14.00;7.97;;;10.70;83.20;;;;;;5059064;28;20474;-74
2021/04/05 10:05:35;;;;;;;13.13;8.17;;;10.50;83.00;;;;;;5059410;28;20464;-75
2021/04/05 10:08:04;;;;;;;13.20;6.00;;;10.50;83.50;;;;;;5058717;28;20413;-77
2021/04/05 10:10:37;;;;;;;14.10;8.10;;;10.70;83.10;;;;;;5057711;28;20412;-75
2021/04/05 10:13:07;;;;;;;11.77;7.03;;;10.80;82.90;;;;;;5059441;28;20831;-76
2021/04/05 10:15:35;;;;;;;11.00;8.57;;;10.90;83.10;;;;;;5061125;28;20514;-74
2021/04/05 10:18:10;;;;;;;10.67;7.60;;;11.10;82.50;;;;;;5063680;28;20480;-74
2021/04/05 10:20:40;;;;;;;13.20;6.67;;;11.30;82.60;;;;;;5060555;28;20438;-79
2021/04/05 10:23:10;;;;;;;13.13;7.30;;;11.00;82.90;;;;;;5060672;28;20430;-76
2021/04/05 10:25:39;;;;;;;16.17;8.63;;;10.80;83.30;;;;;;5060980;28;20413;-75
2021/04/05 10:28:09;;;;;;;11.80;7.23;;;10.80;84.00;;;;;;5060176;28;20403;-75
2021/04/05 10:30:39;;;;;;;12.73;5.70;;;10.70;84.40;;;;;;5062697;28;20462;-79
2021/04/05 10:33:13;;;;;;;10.40;6.37;;;10.70;85.30;;;;;;5063392;28;20929;-80
2021/04/05 10:35:46;;;;;;;15.10;7.13;;;10.40;86.10;;;;;;5059720;28;20434;-77
2021/04/05 10:38:16;;;;;;;14.40;8.50;;;10.40;86.10;;;;;;5057240;28;20405;-76
2021/04/05 10:40:44;;;;;;;20.30;9.30;;;10.30;86.00;;;;;;5056686;28;20426;-72
2021/04/05 10:43:21;;;;;;;19.00;8.20;;;10.50;88.10;;;;;;5056998;28;20422;-72
2021/04/05 10:45:57;;;;;;;11.47;7.80;;;10.80;88.20;;;;;;5055646;28;20535;-72
2021/04/05 10:48:37;;;;;;;14.90;7.53;;;11.20;87.10;;;;;;5056985;28;20404;-73
2021/04/05 10:51:11;;;;;;;12.77;7.73;;;11.30;85.00;;;;;;5056713;28;20492;-73
2021/04/05 10:53:43;;;;;;;16.83;7.57;;;11.30;85.20;;;;;;5056575;28;20424;-77
2021/04/05 10:56:36;;;;;;;16.73;7.80;;;10.90;85.70;;;;;;5057432;28;20953;-74
2021/04/05 10:59:10;;;;;;;10.13;6.80;;;10.60;87.00;;;;;;5056678;28;20807;-73
2021/04/05 11:01:44;;;;;;;11.17;8.17;;;10.80;87.30;;;;;;5054754;28;20891;-74
2021/04/05 11:04:14;;;;;;;11.53;7.53;;;10.70;87.20;;;;;;5055467;28;20535;-73
2021/04/05 11:06:42;;;;;;;14.20;7.83;;;10.80;87.30;;;;;;5057628;28;20417;-74
2021/04/05 11:09:12;;;;;;;11.30;7.20;;;10.70;87.80;;;;;;5055886;28;20405;-73
2021/04/05 11:11:43;;;;;;;13.27;7.70;;;10.60;88.30;;;;;;5057780;28;20462;-73
2021/04/05 11:14:14;;;;;;;13.63;7.13;;;10.50;88.40;;;;;;5059734;28;20401;-73
2021/04/05 11:16:50;;;;;;;16.20;9.33;;;10.60;88.50;;;;;;5057562;28;20474;-73
2021/04/05 11:19:26;;;;;;;15.03;7.27;;;10.90;88.20;;;;;;5057288;28;20424;-74
2021/04/05 11:21:56;;;;;;;8.40;5.97;;;10.90;87.70;;;;;;5058426;28;20773;-77
2021/04/05 11:24:30;;;;;;;12.10;7.47;;;10.70;87.60;;;;;;5061690;28;20416;-78
2021/04/05 11:26:59;;;;;;;17.10;8.90;;;10.90;88.00;;;;;;5065518;28;20439;-77
2021/04/05 11:29:28;;;;;;;16.00;7.90;;;10.80;88.10;;;;;;5068497;28;20409;-78
2021/04/05 11:31:57;;;;;;;12.10;6.93;;;10.70;88.70;;;;;;5048557;28;20477;-77
2021/04/05 11:34:28;;;;;;;15.27;8.37;;;10.60;89.80;;;;;;5067972;28;20428;-77
2021/04/05 11:36:58;;;;;;;11.57;7.90;;;10.40;90.10;;;;;;5066841;28;20433;-80
2021/04/05 11:39:29;;;;;;;14.77;7.63;;;10.30;90.60;;;;;;5047226;28;20484;-78
2021/04/05 11:42:00;;;;;;;14.10;7.80;;;10.40;90.70;;;;;;5057363;28;20439;-77
2021/04/05 11:44:30;;;;;;;14.60;8.00;;;10.40;90.80;;;;;;5059863;28;20420;-77
2021/04/05 11:46:59;;;;;;;13.93;7.73;;;10.20;91.30;;;;;;5057500;28;20453;-78
2021/04/05 11:49:31;;;;;;;15.87;9.70;;;10.20;91.50;;;;;;5057827;28;20413;-76
2021/04/05 11:52:08;;;;;;;14.00;8.20;;;10.20;91.70;;;;;;5058795;28;20462;-77
2021/04/05 11:55:03;;;;;;;15.80;8.17;;;10.20;91.80;;;;;;5059687;28;20502;-77
2021/04/05 11:57:32;;;;;;;21.43;9.17;;;10.00;92.10;;;;;;5061188;28;20428;-77
2021/04/05 12:00:04;;;;;;;15.07;7.30;;;9.90;92.90;;;;;;5058858;28;20474;-77
2021/04/05 12:02:35;;;;;;;11.67;8.23;;;9.80;93.10;;;;;;5034948;28;20479;-76
2021/04/05 12:05:07;;;;;;;10.80;7.60;;;9.90;93.20;;;;;;5037921;28;20820;-80
2021/04/05 12:08:04;;;;;;;12.17;7.97;;;9.90;93.20;;;;;;5038661;28;20953;-78
2021/04/05 12:10:34;;;;;;;12.40;8.17;;;10.00;92.80;;;;;;5038392;28;20439;-78
2021/04/05 12:13:07;;;;;;;18.73;9.73;;;9.90;93.20;;;;;;5038683;28;20535;-77
2021/04/05 12:15:36;;;;;;;16.70;7.80;;;9.80;93.30;;;;;;5040836;28;20492;-77
2021/04/05 12:18:04;;;;;;;10.60;6.90;;;10.00;93.00;;;;;;5054082;28;20404;-77
2021/04/05 12:20:34;;;;;;;10.97;8.10;;;10.00;92.70;;;;;;5038356;28;20439;-77
2021/04/05 12:23:07;;;;;;;15.10;7.70;;;9.80;93.30;;;;;;5056320;28;20413;-78
2021/04/05 12:25:43;;;;;;;19.70;9.37;;;9.90;93.50;;;;;;5055702;28;20441;-76
2021/04/05 12:28:13;;;;;;;17.17;8.47;;;9.90;93.80;;;;;;5055490;28;20467;-78
2021/04/05 12:30:42;;;;;;;14.07;9.60;;;9.80;94.10;;;;;;5053338;28;20993;-77
2021/04/05 12:33:12;;;;;;;17.47;9.30;;;9.80;94.50;;;;;;5057850;28;20956;-76
2021/04/05 12:35:57;;;;;;;18.03;9.07;;;9.70;94.30;;;;;;5056540;28;20435;-80
2021/04/05 12:38:52;;;;;;;12.40;8.77;;;9.50;94.70;;;;;;5057755;28;20510;-81
2021/04/05 12:41:21;;;;;;;14.33;8.60;;;9.30;95.00;;;;;;5056260;28;20434;-76
2021/04/05 12:43:51;;;;;;;9.13;7.83;;;9.40;95.00;;;;;;5058085;28;20484;-79
2021/04/05 12:46:20;;;;;;;11.50;7.90;;;9.20;95.00;;;;;;5056402;28;20473;-81
2021/04/05 12:48:48;;;;;;;16.03;8.57;;;9.10;95.30;;;;;;5056031;28;20438;-75
2021/04/05 12:51:23;;;;;;;17.50;10.00;;;9.10;95.80;;;;;;5058814;28;20461;-75
2021/04/05 12:54:00;;;;;;;16.63;8.50;;;9.10;95.80;;;;;;5059482;28;20490;-78
2021/04/05 12:56:29;;;;;;;12.23;7.60;;;9.10;95.90;;;;;;5059233;28;20965;-78
2021/04/05 12:58:57;;;;;;;18.13;10.73;;;9.10;95.90;;;;;;5059358;28;20438;-81
2021/04/05 13:01:31;;;;;;;14.33;8.67;;;9.10;96.00;;;;;;5062131;28;20467;-76
2021/04/05 13:04:01;;;;;;;10.17;6.57;;;9.10;95.90;;;;;;5045799;28;20444;-80
2021/04/05 13:06:37;;;;;;;15.67;9.10;;;9.20;96.00;;;;;;5063891;28;20475;-77
2021/04/05 13:09:12;;;;;;;14.47;8.80;;;9.20;96.10;;;;;;5062447;28;20499;-78
2021/04/05 13:11:45;;;;;;;12.13;7.80;;;9.20;96.60;;;;;;5062035;28;20561;-79
2021/04/05 13:14:19;;;;;;;12.70;9.90;;;9.20;97.20;;;;;;5058330;28;20473;-77
2021/04/05 13:16:54;;;;;;;13.27;7.63;;;9.10;98.00;;;;;;5049707;28;20502;-77
2021/04/05 13:19:33;;;;;;;13.50;9.27;;;9.00;98.70;;;;;;5047836;28;20405;-78
2021/04/05 13:22:02;;;;;;;17.80;9.43;;;8.90;99.30;;;;;;5057671;28;20413;-77
2021/04/05 13:24:34;;;;;;;10.70;7.00;;;8.80;99.90;;;;;;5041239;28;20442;-79
2021/04/05 13:27:04;;;;;;;12.60;8.57;;;8.70;99.90;;;;;;5058656;28;20436;-80
2021/04/05 13:29:35;;;;;;;16.00;9.27;;;8.50;99.90;;;;;;5057412;28;20409;-78
2021/04/05 13:32:07;;;;;;;15.33;9.20;;;8.50;99.90;;;;;;5057149;28;20583;-80